createdAt,value
2022-11-21T00:01:43.029Z,5.67
2022-11-21T00:04:12.645Z,5.83
2022-11-21T00:06:42.143Z,4.78
2022-11-21T00:09:11.706Z,4.63
2022-11-21T00:11:41.266Z,4.53
2022-11-21T00:14:10.759Z,4.10
2022-11-21T00:16:40.463Z,3.42
2022-11-21T00:19:09.960Z,3.95
2022-11-21T00:21:39.465Z,3.52
2022-11-21T00:24:11.833Z,3.80
2022-11-21T00:26:41.392Z,3.47
2022-11-21T00:29:11.084Z,3.70
2022-11-21T00:31:40.588Z,5.10
2022-11-21T00:34:11.691Z,5.17
2022-11-21T00:36:41.186Z,5.08
2022-11-21T00:39:11.498Z,4.34
2022-11-21T00:41:41.079Z,4.72
2022-11-21T00:44:12.637Z,3.98
2022-11-21T00:46:42.214Z,4.70
2022-11-21T00:49:11.765Z,4.03
2022-11-21T00:51:41.207Z,4.62
2022-11-21T00:54:11.017Z,5.17
2022-11-21T00:56:40.575Z,5.35
2022-11-21T00:59:10.135Z,5.20
2022-11-21T01:01:39.757Z,4.97
2022-11-21T01:04:09.261Z,4.65
2022-11-21T01:06:39.850Z,4.90
2022-11-21T01:09:09.430Z,4.30
2022-11-21T01:11:38.939Z,3.67
2022-11-21T01:14:08.508Z,3.80
2022-11-21T01:16:37.941Z,3.83
2022-11-21T01:19:07.675Z,3.75
2022-11-21T01:21:37.102Z,3.47
2022-11-21T01:24:06.671Z,4.00
2022-11-21T01:26:37.794Z,4.22
2022-11-21T01:29:08.964Z,3.70
2022-11-21T01:31:38.452Z,4.03
2022-11-21T01:34:07.997Z,3.90
2022-11-21T01:36:37.535Z,3.97
2022-11-21T01:39:08.403Z,4.25
2022-11-21T01:41:46.778Z,4.90
2022-11-21T01:44:21.945Z,4.20
2022-11-21T01:46:53.142Z,4.50
2022-11-21T01:49:32.214Z,3.87
2022-11-21T01:52:20.312Z,5.17
2022-11-21T01:54:59.116Z,3.92
2022-11-21T01:57:34.767Z,3.80
2022-11-21T02:00:16.312Z,3.37
2022-11-21T02:02:48.846Z,3.47
2022-11-21T02:05:21.342Z,3.92
2022-11-21T02:07:52.877Z,3.60
2022-11-21T02:10:23.019Z,2.98
2022-11-21T02:12:56.227Z,3.45
2022-11-21T02:15:28.660Z,3.55
2022-11-21T02:17:58.171Z,3.00
2022-11-21T02:20:29.923Z,2.77
2022-11-21T02:23:08.415Z,4.10
2022-11-21T02:25:41.955Z,3.77
2022-11-21T02:28:14.505Z,3.50
2022-11-21T02:30:44.671Z,3.00
2022-11-21T02:33:15.267Z,3.80
2022-11-21T02:35:45.223Z,2.85
2022-11-21T02:38:20.465Z,2.80
2022-11-21T02:41:07.858Z,2.90
2022-11-21T02:43:43.282Z,3.47
2022-11-21T02:46:12.714Z,3.15
2022-11-21T02:48:42.393Z,3.40
2022-11-21T02:51:11.971Z,3.30
2022-11-21T02:53:41.400Z,3.05
2022-11-21T02:56:10.822Z,2.90
2022-11-21T02:58:41.184Z,3.25
2022-11-21T03:01:10.662Z,3.02
2022-11-21T03:03:40.293Z,3.70
2022-11-21T03:06:09.896Z,4.05
2022-11-21T03:08:39.451Z,3.47
2022-11-21T03:11:09.020Z,2.98
2022-11-21T03:13:38.658Z,3.50
2022-11-21T03:16:08.226Z,4.00
2022-11-21T03:18:37.800Z,3.65
2022-11-21T03:21:07.325Z,3.50
2022-11-21T03:25:43.694Z,3.50
2022-11-21T03:28:13.189Z,3.27
2022-11-21T03:30:42.754Z,3.30
2022-11-21T03:33:12.239Z,3.33
2022-11-21T03:35:41.754Z,3.67
2022-11-21T03:38:11.252Z,3.00
2022-11-21T03:40:40.737Z,3.37
2022-11-21T03:43:10.434Z,5.58
2022-11-21T03:45:39.865Z,4.12
2022-11-21T03:48:09.291Z,4.20
2022-11-21T03:50:38.816Z,3.42
2022-11-21T03:53:08.244Z,3.17
2022-11-21T03:55:37.661Z,2.98
2022-11-21T03:58:07.289Z,2.45
2022-11-21T04:00:37.570Z,2.92
2022-11-21T04:03:06.952Z,3.02
2022-11-21T04:05:36.494Z,3.87
2022-11-21T04:08:06.159Z,2.72
2022-11-21T04:10:35.649Z,3.22
2022-11-21T04:13:05.625Z,2.72
2022-11-21T04:15:35.114Z,3.22
2022-11-21T04:18:04.724Z,3.30
2022-11-21T04:20:34.418Z,2.50
2022-11-21T04:23:04.971Z,3.50
2022-11-21T04:25:34.957Z,3.90
2022-11-21T04:28:05.693Z,3.67
2022-11-21T04:30:36.414Z,3.52
2022-11-21T04:33:05.908Z,3.00
2022-11-21T04:35:35.412Z,4.37
2022-11-21T04:38:05.015Z,3.10
2022-11-21T04:40:35.985Z,3.50
2022-11-21T04:43:07.235Z,3.10
2022-11-21T04:45:36.981Z,3.40
2022-11-21T04:48:06.739Z,2.70
2022-11-21T04:50:36.483Z,3.08
2022-11-21T04:53:06.427Z,3.20
2022-11-21T04:55:35.997Z,3.27
2022-11-21T04:58:05.630Z,2.83
2022-11-21T05:00:37.219Z,3.17
2022-11-21T05:03:09.351Z,3.20
2022-11-21T05:05:38.935Z,3.03
2022-11-21T05:08:08.364Z,2.80
2022-11-21T05:10:39.565Z,2.85
2022-11-21T05:13:22.166Z,3.17
2022-11-21T05:15:55.201Z,3.80
2022-11-21T05:20:53.327Z,3.20
2022-11-21T05:23:22.878Z,4.17
2022-11-21T05:25:52.466Z,2.95
2022-11-21T05:28:22.026Z,3.22
2022-11-21T05:30:51.728Z,2.92
2022-11-21T05:33:21.373Z,2.98
2022-11-21T05:35:50.900Z,4.05
2022-11-21T05:38:20.402Z,3.42
2022-11-21T05:40:49.890Z,2.87
2022-11-21T05:43:37.468Z,3.37
2022-11-21T05:46:07.046Z,3.50
2022-11-21T05:48:37.052Z,3.73
2022-11-21T05:51:06.616Z,2.92
2022-11-21T05:53:37.091Z,3.25
2022-11-21T05:56:09.685Z,3.33
2022-11-21T05:58:39.948Z,2.62
2022-11-21T06:01:12.032Z,2.90
2022-11-21T06:03:43.773Z,3.70
2022-11-21T06:06:19.637Z,3.45
2022-11-21T06:08:48.407Z,3.37
2022-11-21T06:11:18.766Z,3.17
2022-11-21T06:13:48.355Z,2.67
2022-11-21T06:16:20.181Z,3.90
2022-11-21T06:18:58.136Z,2.47
2022-11-21T06:21:28.757Z,2.98
2022-11-21T06:23:59.499Z,3.10
2022-11-21T06:26:29.726Z,3.27
2022-11-21T06:28:59.417Z,3.45
2022-11-21T06:31:29.035Z,3.37
2022-11-21T06:34:00.136Z,3.20
2022-11-21T06:36:29.641Z,4.15
2022-11-21T06:38:59.069Z,3.65
2022-11-21T06:41:30.436Z,3.45
2022-11-21T06:44:03.813Z,2.90
2022-11-21T06:46:33.438Z,2.72
2022-11-21T06:49:03.000Z,3.15
2022-11-21T06:51:32.494Z,3.60
2022-11-21T06:54:02.083Z,3.40
2022-11-21T06:56:33.448Z,5.28
2022-11-21T06:59:03.431Z,4.20
2022-11-21T07:01:33.119Z,2.83
2022-11-21T07:04:02.628Z,2.90
2022-11-21T07:06:32.221Z,2.83
2022-11-21T07:11:33.122Z,3.98
2022-11-21T07:14:07.742Z,3.55
2022-11-21T07:16:35.395Z,3.00
2022-11-21T07:19:05.063Z,3.57
2022-11-21T07:21:34.623Z,3.08
2022-11-21T07:24:04.264Z,3.02
2022-11-21T07:26:33.817Z,3.50
2022-11-21T07:29:03.388Z,4.25
2022-11-21T07:31:32.991Z,3.30
2022-11-21T07:34:02.482Z,3.77
2022-11-21T07:36:33.107Z,4.22
2022-11-21T07:39:03.122Z,6.10
2022-11-21T07:41:33.032Z,4.92
2022-11-21T07:44:02.590Z,4.85
2022-11-21T07:46:32.186Z,4.40
2022-11-21T07:49:03.498Z,4.10
2022-11-21T07:51:33.991Z,4.03
2022-11-21T07:54:03.580Z,4.00
2022-11-21T07:56:33.017Z,3.90
2022-11-21T07:59:02.582Z,4.30
2022-11-21T08:01:34.124Z,3.72
2022-11-21T08:04:03.753Z,3.70
2022-11-21T08:06:33.146Z,4.22
2022-11-21T08:09:02.705Z,3.05
2022-11-21T08:11:32.980Z,3.30
2022-11-21T08:14:02.397Z,2.92
2022-11-21T08:16:33.116Z,3.45
2022-11-21T08:19:03.072Z,3.77
2022-11-21T08:21:32.570Z,3.83
2022-11-21T08:24:02.158Z,3.17
2022-11-21T08:26:31.591Z,3.72
2022-11-21T08:29:01.822Z,3.05
2022-11-21T08:31:31.511Z,3.65
2022-11-21T08:34:00.944Z,2.87
2022-11-21T08:36:30.442Z,5.30
2022-11-21T08:39:00.071Z,4.35
2022-11-21T08:41:47.635Z,3.75
2022-11-21T08:44:17.235Z,3.60
2022-11-21T08:46:46.663Z,3.08
2022-11-21T08:49:16.563Z,3.24
2022-11-21T08:51:50.290Z,2.60
2022-11-21T08:54:22.882Z,2.77
2022-11-21T08:56:52.992Z,3.10
2022-11-21T08:59:22.403Z,3.47
2022-11-21T09:01:52.967Z,2.92
2022-11-21T09:04:22.815Z,2.70
2022-11-21T09:06:52.386Z,3.10
2022-11-21T09:09:25.334Z,3.72
2022-11-21T09:11:53.087Z,3.42
2022-11-21T09:14:40.661Z,3.37
2022-11-21T09:17:33.120Z,3.83
2022-11-21T09:20:02.844Z,3.97
2022-11-21T09:22:32.656Z,3.60
2022-11-21T09:25:02.203Z,2.40
2022-11-21T09:27:32.846Z,3.08
2022-11-21T09:30:02.728Z,4.30
2022-11-21T09:32:32.283Z,3.40
2022-11-21T09:35:01.786Z,2.90
2022-11-21T09:37:31.357Z,3.45
2022-11-21T09:40:00.774Z,3.90
2022-11-21T09:42:51.597Z,5.45
2022-11-21T09:45:35.939Z,6.40
2022-11-21T09:48:11.061Z,6.20
2022-11-21T09:50:47.086Z,4.58
2022-11-21T09:53:21.360Z,4.70
2022-11-21T09:56:00.310Z,7.03
2022-11-21T09:58:44.875Z,5.92
2022-11-21T10:01:17.124Z,7.00
2022-11-21T10:03:50.186Z,4.47
2022-11-21T10:06:32.373Z,3.47
2022-11-21T10:09:35.040Z,6.10
2022-11-21T10:12:38.354Z,3.83
2022-11-21T10:15:43.744Z,3.30
2022-11-21T10:18:35.964Z,3.05
2022-11-21T10:21:23.698Z,4.50
2022-11-21T10:24:30.131Z,4.78
2022-11-21T10:27:02.768Z,3.80
2022-11-21T10:29:44.545Z,8.05
2022-11-21T10:32:25.606Z,5.30
2022-11-21T10:34:58.267Z,4.15
2022-11-21T10:40:00.357Z,3.70
2022-11-21T10:42:32.849Z,3.30
2022-11-21T10:45:19.559Z,3.70
2022-11-21T10:47:51.830Z,4.53
2022-11-21T10:50:50.010Z,4.45
2022-11-21T10:53:40.049Z,3.17
2022-11-21T10:56:12.762Z,3.10
2022-11-21T10:58:45.384Z,4.15
2022-11-21T11:01:30.299Z,3.35
2022-11-21T11:04:29.179Z,3.83
2022-11-21T11:06:46.252Z,3.25
2022-11-21T11:09:30.319Z,4.80
2022-11-21T11:12:23.189Z,5.03
2022-11-21T11:14:58.798Z,3.80
2022-11-21T11:17:31.154Z,3.93
2022-11-21T11:20:09.505Z,3.37
2022-11-21T11:22:39.158Z,3.35
2022-11-21T11:25:10.774Z,4.42
2022-11-21T11:27:40.237Z,6.78
2022-11-21T11:30:12.793Z,5.37
2022-11-21T11:32:42.524Z,4.75
2022-11-21T11:35:23.887Z,4.08
2022-11-21T11:38:03.539Z,4.10
2022-11-21T11:40:38.660Z,4.33
2022-11-21T11:43:28.662Z,4.83
2022-11-21T11:46:45.050Z,5.05
2022-11-21T11:49:32.441Z,3.50
2022-11-21T11:52:05.255Z,3.58
2022-11-21T11:54:37.818Z,4.08
2022-11-21T11:57:07.595Z,4.05
2022-11-21T11:59:40.695Z,4.12
2022-11-21T12:05:01.724Z,3.80
2022-11-21T12:10:17.286Z,4.35
2022-11-21T12:12:52.628Z,4.08
2022-11-21T12:15:42.967Z,4.22
2022-11-21T12:18:18.190Z,3.87
2022-11-21T12:21:05.920Z,3.93
2022-11-21T12:23:50.334Z,3.72
2022-11-21T12:26:22.875Z,4.40
2022-11-21T12:29:15.253Z,5.45
2022-11-21T12:32:07.205Z,4.20
2022-11-21T12:34:39.706Z,5.33
2022-11-21T12:37:33.405Z,4.12
2022-11-21T12:40:17.855Z,5.60
2022-11-21T12:43:15.921Z,5.25
2022-11-21T12:45:51.597Z,5.22
2022-11-21T12:48:51.105Z,4.15
2022-11-21T12:52:14.665Z,5.58
2022-11-21T12:54:50.033Z,5.85
2022-11-21T12:57:22.086Z,4.60
2022-11-21T13:00:00.783Z,4.10
2022-11-21T13:02:57.399Z,4.87
2022-11-21T13:05:32.646Z,4.03
2022-11-21T13:08:05.144Z,5.15
2022-11-21T13:10:34.819Z,5.25
2022-11-21T13:13:22.053Z,4.97
2022-11-21T13:16:00.404Z,5.92
2022-11-21T13:18:38.747Z,6.83
2022-11-21T13:21:11.239Z,5.75
2022-11-21T13:23:43.620Z,6.50
2022-11-21T13:26:34.285Z,5.45
2022-11-21T13:29:10.061Z,7.50
2022-11-21T13:31:41.263Z,5.87
2022-11-21T13:34:37.113Z,3.50
2022-11-21T13:37:07.191Z,3.45
2022-11-21T13:39:38.982Z,2.67
2022-11-21T13:42:29.202Z,1.90
2022-11-21T13:44:59.548Z,2.00
2022-11-21T13:47:56.725Z,2.12
2022-11-21T13:50:30.163Z,1.95
2022-11-21T13:53:05.363Z,1.85
2022-11-21T13:55:49.804Z,1.72
2022-11-21T13:58:49.668Z,2.10
2022-11-21T14:01:28.158Z,2.50
2022-11-21T14:04:03.407Z,2.02
2022-11-21T14:06:36.545Z,3.08
2022-11-21T14:11:54.749Z,2.50
2022-11-21T14:14:48.030Z,2.17
2022-11-21T14:17:23.444Z,2.10
2022-11-21T14:19:58.911Z,2.30
2022-11-21T14:22:35.524Z,1.85
2022-11-21T14:25:04.489Z,2.33
2022-11-21T14:27:40.769Z,2.45
2022-11-21T14:30:09.217Z,2.10
2022-11-21T14:32:38.908Z,1.98
2022-11-21T14:35:14.624Z,1.95
2022-11-21T14:37:44.150Z,2.08
2022-11-21T14:40:16.491Z,1.72
2022-11-21T14:42:47.135Z,2.67
2022-11-21T14:45:23.226Z,1.70
2022-11-21T14:47:55.106Z,2.37
2022-11-21T14:50:28.221Z,2.95
2022-11-21T14:52:59.691Z,2.05
2022-11-21T14:55:33.761Z,2.40
2022-11-21T14:58:06.664Z,2.50
2022-11-21T15:03:13.275Z,2.40
2022-11-21T15:08:42.253Z,2.62
2022-11-21T15:10:45.198Z,1.80
2022-11-21T15:13:17.428Z,2.33
2022-11-21T15:15:50.063Z,2.23
2022-11-21T15:18:30.979Z,1.75
2022-11-21T15:21:03.203Z,2.20
2022-11-21T15:23:42.580Z,1.70
2022-11-21T15:26:33.078Z,1.80
2022-11-21T15:29:03.086Z,15.03
2022-11-21T15:31:32.729Z,7.33
2022-11-21T15:36:35.502Z,9.18
2022-11-21T15:39:13.671Z,6.05
2022-11-21T15:41:43.171Z,18.82
2022-11-21T15:44:15.791Z,11.80
2022-11-21T15:46:47.145Z,6.35
2022-11-21T15:49:32.505Z,17.30
2022-11-21T15:54:23.253Z,4.92
2022-11-21T15:56:52.815Z,7.85
2022-11-21T15:57:14.470Z,5.03
2022-11-21T15:59:22.255Z,8.85
2022-11-21T16:01:51.825Z,5.62
2022-11-21T16:04:25.635Z,6.75
2022-11-21T16:06:53.122Z,6.67
2022-11-21T16:09:22.696Z,5.37
2022-11-21T16:11:52.993Z,6.85
2022-11-21T16:14:22.490Z,5.20
2022-11-21T16:16:51.994Z,8.43
2022-11-21T16:19:21.515Z,7.73
2022-11-21T16:21:51.132Z,16.80
2022-11-21T16:24:20.633Z,12.78
2022-11-21T16:26:52.072Z,10.38
2022-11-21T16:29:21.638Z,9.08
2022-11-21T16:31:55.816Z,9.28
2022-11-21T16:34:26.483Z,25.80
2022-11-21T16:36:56.911Z,15.98
2022-11-21T16:39:26.556Z,10.60
2022-11-21T16:41:56.059Z,9.38
2022-11-21T16:44:25.678Z,12.45
2022-11-21T16:46:55.515Z,11.57
2022-11-21T16:49:25.144Z,9.95
2022-11-21T16:51:56.464Z,8.60
2022-11-21T16:54:29.147Z,8.83
2022-11-21T16:59:27.704Z,19.62
2022-11-21T17:01:57.713Z,12.73
2022-11-21T17:04:28.145Z,4.42
2022-11-21T17:06:57.729Z,5.15
2022-11-21T17:09:27.312Z,3.90
2022-11-21T17:11:58.565Z,5.58
2022-11-21T17:14:28.430Z,5.42
2022-11-21T17:17:01.355Z,6.12
2022-11-21T17:19:30.868Z,5.12
2022-11-21T17:22:00.445Z,4.87
2022-11-21T17:24:30.401Z,7.90
2022-11-21T17:27:02.451Z,9.10
2022-11-21T17:29:32.059Z,5.25
2022-11-21T17:32:01.482Z,7.30
2022-11-21T17:34:33.280Z,6.85
2022-11-21T17:37:02.266Z,6.53
2022-11-21T17:39:32.478Z,7.10
2022-11-21T17:42:03.269Z,20.60
2022-11-21T17:44:33.414Z,29.00
2022-11-21T17:47:19.465Z,9.70
2022-11-21T17:49:50.704Z,10.53
2022-11-21T17:52:20.695Z,6.97
2022-11-21T17:54:50.161Z,9.13
2022-11-21T17:57:19.733Z,9.30
2022-11-21T17:59:49.319Z,18.30
2022-11-21T18:02:20.589Z,12.53
2022-11-21T18:04:50.508Z,21.33
2022-11-21T18:07:20.023Z,18.27
2022-11-21T18:09:49.488Z,8.40
2022-11-21T18:12:18.987Z,47.53
2022-11-21T18:14:48.588Z,16.02
2022-11-21T18:17:18.081Z,16.42
2022-11-21T18:19:47.529Z,9.73
2022-11-21T18:22:17.237Z,25.35
2022-11-21T18:24:47.345Z,27.98
2022-11-21T18:27:16.839Z,9.10
2022-11-21T18:29:47.017Z,4.28
2022-11-21T18:32:16.737Z,4.50
2022-11-21T18:34:46.984Z,4.80
2022-11-21T18:37:17.248Z,4.10
2022-11-21T18:39:47.323Z,5.58
2022-11-21T18:42:16.834Z,4.62
2022-11-21T18:44:47.118Z,3.37
2022-11-21T18:47:20.778Z,3.42
2022-11-21T18:49:48.075Z,4.03
2022-11-21T18:52:17.699Z,3.60
2022-11-21T18:54:47.268Z,3.95
2022-11-21T18:57:16.775Z,3.40
2022-11-21T18:59:47.124Z,3.67
2022-11-21T19:02:17.003Z,3.50
2022-11-21T19:04:47.556Z,3.40
2022-11-21T19:07:17.130Z,3.02
2022-11-21T19:09:46.811Z,3.83
2022-11-21T19:12:17.688Z,3.67
2022-11-21T19:14:47.200Z,3.87
2022-11-21T19:17:16.607Z,3.17
2022-11-21T19:19:46.763Z,9.03
2022-11-21T19:22:16.377Z,3.42
2022-11-21T19:24:45.934Z,4.28
2022-11-21T19:27:15.388Z,10.50
2022-11-21T19:29:44.910Z,4.33
2022-11-21T19:32:14.332Z,7.85
2022-11-21T19:34:43.859Z,6.83
2022-11-21T19:37:13.496Z,5.05
2022-11-21T19:39:43.062Z,6.92
2022-11-21T19:42:12.635Z,4.35
2022-11-21T19:44:42.141Z,6.75
2022-11-21T19:47:12.545Z,5.40
2022-11-21T19:49:42.062Z,6.53
2022-11-21T19:52:11.638Z,3.58
2022-11-21T19:54:41.125Z,7.97
2022-11-21T19:57:13.877Z,4.53
2022-11-21T19:59:46.406Z,5.37
2022-11-21T20:02:15.997Z,2.85
2022-11-21T20:04:46.479Z,6.07
2022-11-21T20:07:16.083Z,4.10
2022-11-21T20:09:45.673Z,8.13
2022-11-21T20:12:15.119Z,8.15
2022-11-21T20:14:44.635Z,9.48
2022-11-21T20:17:14.075Z,10.60
2022-11-21T20:19:50.312Z,13.22
2022-11-21T20:22:14.804Z,4.00
2022-11-21T20:24:50.276Z,9.00
2022-11-21T20:27:16.160Z,4.47
2022-11-21T20:29:46.141Z,4.90
2022-11-21T20:32:15.722Z,4.92
2022-11-21T20:34:45.392Z,3.62
2022-11-21T20:37:14.896Z,7.53
2022-11-21T20:39:44.533Z,7.72
2022-11-21T20:42:15.203Z,11.48
2022-11-21T20:47:19.327Z,4.08
2022-11-21T20:49:48.759Z,3.17
2022-11-21T20:54:49.463Z,2.02
2022-11-21T20:57:19.030Z,2.00
2022-11-21T20:59:48.773Z,2.00
2022-11-21T21:02:23.528Z,2.87
2022-11-21T21:04:52.001Z,2.37
2022-11-21T21:07:21.599Z,3.67
2022-11-21T21:09:51.205Z,3.17
2022-11-21T21:12:20.851Z,2.30
2022-11-21T21:14:52.103Z,2.47
2022-11-21T21:17:21.634Z,2.70
2022-11-21T21:19:51.127Z,2.20
2022-11-21T21:22:22.316Z,2.58
2022-11-21T21:24:53.838Z,2.17
2022-11-21T21:27:23.492Z,1.98
2022-11-21T21:29:54.099Z,2.17
2022-11-21T21:32:23.618Z,2.15
2022-11-21T21:34:53.119Z,1.55
2022-11-21T21:37:22.776Z,1.65
2022-11-21T21:39:53.922Z,1.30
2022-11-21T21:42:23.425Z,1.50
2022-11-21T21:44:53.232Z,1.45
2022-11-21T21:47:22.720Z,1.85
2022-11-21T21:49:52.512Z,1.70
2022-11-21T21:52:22.070Z,2.10
2022-11-21T21:54:51.635Z,1.87
2022-11-21T21:57:21.123Z,1.72
2022-11-21T21:59:50.574Z,1.30
2022-11-21T22:02:20.090Z,2.00
2022-11-21T22:04:52.104Z,2.70
2022-11-21T22:07:20.866Z,2.40
2022-11-21T22:09:50.331Z,2.02
2022-11-21T22:12:19.900Z,2.15
2022-11-21T22:14:49.422Z,2.02
2022-11-21T22:17:19.550Z,2.00
2022-11-21T22:19:49.100Z,2.42
2022-11-21T22:22:18.740Z,1.80
2022-11-21T22:24:48.411Z,1.45
2022-11-21T22:27:17.830Z,1.80
2022-11-21T22:29:47.388Z,1.52
2022-11-21T22:32:19.854Z,1.67
2022-11-21T22:34:48.031Z,1.95
2022-11-21T22:37:17.446Z,1.77
2022-11-21T22:39:47.449Z,1.65
2022-11-21T22:42:17.035Z,1.77
2022-11-21T22:44:46.526Z,1.65
2022-11-21T22:47:16.069Z,1.70
2022-11-21T22:49:45.648Z,1.98
2022-11-21T22:52:15.242Z,1.82
2022-11-21T22:54:44.708Z,2.30
2022-11-21T22:57:14.144Z,1.57
2022-11-21T22:59:43.643Z,2.55
2022-11-21T23:02:13.132Z,1.70
2022-11-21T23:04:42.749Z,1.60
2022-11-21T23:07:12.380Z,1.98
2022-11-21T23:09:41.985Z,1.77
2022-11-21T23:12:11.430Z,1.95
2022-11-21T23:14:40.851Z,1.72
2022-11-21T23:17:10.442Z,1.75
2022-11-21T23:19:40.071Z,1.70
2022-11-21T23:22:09.636Z,1.70
2022-11-21T23:24:39.865Z,1.75
2022-11-21T23:27:09.367Z,1.95
2022-11-21T23:29:38.875Z,1.52
2022-11-21T23:32:08.372Z,1.70
2022-11-21T23:34:37.859Z,1.75
2022-11-21T23:37:07.355Z,1.67
2022-11-21T23:39:36.843Z,2.15
2022-11-21T23:42:06.417Z,1.82
2022-11-21T23:44:35.937Z,2.40
2022-11-21T23:47:05.522Z,1.70
2022-11-21T23:49:34.925Z,2.10
2022-11-21T23:52:04.547Z,1.80
2022-11-21T23:54:34.342Z,1.52
2022-11-21T23:57:03.983Z,1.98
2022-11-21T23:59:33.458Z,1.80
